Time;durP1;ratioP1;P1;durP2;ratioP2;P2;SDS_P1;SDS_P2;PMS_P1;PMS_P2;Temp;Humidity;BMP_temperature;BMP_pressure;BME280_temperature;BME280_humidity;BME280_pressure;Samples;Min_cycle;Max_cycle;Signal;HPM_P1;HPM_P2
2023/10/07 06:36:24;;;;;;;12.35;5.30;;;;;;;9.22;76.21;97440.16;2083498;28;20578;-64
2023/10/07 06:40:40;;;;;;;13.40;5.43;;;;;;;9.50;75.87;97449.84;2093627;27;20567;-64
2023/10/07 07:18:25;;;;;;;18.23;5.88;;;;;;;8.28;83.17;97502.28;2087943;28;21041;-66
2023/10/07 07:19:29;;;;;;;14.98;5.53;;;;;;;9.08;80.53;97494.38;2087413;28;20224;-66
2023/10/07 07:20:48;;;;;;;12.63;6.47;;;;;;;10.27;77.18;97498.94;2086802;28;20721;-66
2023/10/07 07:21:50;;;;;;;13.88;5.30;;;;;;;9.83;74.93;97490.66;2085478;28;20203;-66
2023/10/07 07:22:51;;;;;;;12.75;5.18;;;;;;;10.28;73.75;97498.91;2085775;28;20192;-66
2023/10/07 07:23:53;;;;;;;19.80;5.90;;;;;;;9.92;74.96;97491.25;2085691;28;20287;-66
2023/10/07 07:24:55;;;;;;;13.30;5.90;;;;;;;9.55;75.72;97492.28;2083651;28;20240;-66
2023/10/07 07:26:06;;;;;;;13.60;5.45;;;;;;;9.83;75.73;97488.91;2085239;28;20235;-66
2023/10/07 07:27:08;;;;;;;18.80;5.95;;;;;;;10.04;75.31;97497.00;2082799;28;20199;-66
2023/10/07 07:28:10;;;;;;;15.45;5.40;;;;;;;10.26;75.18;97495.47;2085870;28;20228;-67
2023/10/07 07:29:17;;;;;;;15.40;5.88;;;;;;;10.38;75.89;97498.66;2082117;28;20231;-66
2023/10/07 07:48:39;;;;;;;15.82;6.20;;;;;;;10.21;78.32;97499.13;2086726;28;20996;-66
2023/10/07 07:50:45;;;;;;;13.45;6.32;;;;;;;10.48;79.42;97499.25;2101583;27;20641;-67
2023/10/07 07:51:51;;;;;;;15.65;6.32;;;;;;;10.48;78.16;97496.63;2096581;28;20188;-67
2023/10/07 07:52:53;;;;;;;13.13;5.55;;;;;;;10.78;76.89;97492.22;2096646;28;20298;-66
2023/10/07 07:53:58;;;;;;;16.70;6.43;;;;;;;11.00;75.82;97488.91;2097928;28;20188;-67
2023/10/07 07:54:59;;;;;;;17.40;6.47;;;;;;;11.12;75.35;97488.47;2088141;28;20223;-67
2023/10/07 07:56:00;;;;;;;13.88;5.95;;;;;;;11.14;75.02;97489.28;2087590;28;20196;-67
2023/10/07 07:57:04;;;;;;;14.18;5.88;;;;;;;11.56;74.67;97499.16;2087026;28;20198;-67
2023/10/07 07:58:09;;;;;;;14.18;5.97;;;;;;;11.60;73.67;97492.94;2087142;28;20202;-67
2023/10/07 07:59:13;;;;;;;16.38;6.43;;;;;;;11.73;73.86;97492.47;2086693;28;20192;-66
2023/10/07 08:00:21;;;;;;;16.58;6.93;;;;;;;11.67;74.02;97497.94;2087267;28;20196;-67
2023/10/07 08:01:28;;;;;;;16.85;6.47;;;;;;;11.70;73.89;97482.97;2086644;28;20635;-67
2023/10/07 08:02:30;;;;;;;16.17;6.72;;;;;;;11.67;73.84;97498.81;2085483;28;20196;-67
2023/10/07 08:03:35;;;;;;;18.40;6.78;;;;;;;11.24;74.88;97498.50;2087146;28;20900;-67
2023/10/07 08:04:39;;;;;;;16.85;6.85;;;;;;;11.05;75.72;97505.28;2081136;28;20224;-67
2023/10/07 08:05:42;;;;;;;15.18;6.80;;;;;;;10.85;75.65;97500.69;2080108;28;20286;-67
2023/10/07 08:06:47;;;;;;;20.77;7.55;;;;;;;10.77;76.37;97501.78;2078838;28;20212;-67
2023/10/07 08:07:51;;;;;;;28.98;9.00;;;;;;;10.56;76.96;97505.94;2077633;28;20201;-67
2023/10/07 08:08:54;;;;;;;32.15;8.95;;;;;;;10.58;76.88;97509.34;2078842;28;20204;-67
2023/10/07 08:09:58;;;;;;;22.40;7.53;;;;;;;10.91;76.44;97503.97;2077738;28;20255;-67
2023/10/07 08:11:00;;;;;;;17.13;8.25;;;;;;;10.68;76.79;97502.09;2078746;28;20440;-66
2023/10/07 08:12:01;;;;;;;25.40;7.47;;;;;;;10.87;76.96;97494.50;2078902;28;20427;-67
2023/10/07 08:13:06;;;;;;;25.48;8.35;;;;;;;10.82;77.21;97499.03;2078121;28;20641;-67
2023/10/07 08:15:21;;;;;;;17.45;7.70;;;;;;;11.23;76.51;97491.56;2092766;27;20567;-64
2023/10/07 08:17:27;;;;;;;16.95;8.40;;;;;;;11.65;77.15;97502.38;2101320;27;20570;-64
2023/10/07 08:18:29;;;;;;;21.75;8.45;;;;;;;11.77;77.60;97500.19;2095242;28;20638;-64
2023/10/07 08:20:44;;;;;;;16.23;7.15;;;;;;;12.00;76.65;97513.34;2083737;28;20563;-64
2023/10/07 08:22:51;;;;;;;14.77;7.10;;;;;;;12.07;77.12;97507.00;2100472;27;20571;-64
2023/10/07 08:23:53;;;;;;;13.85;6.57;;;;;;;12.37;75.97;97507.59;2097327;28;20279;-65
2023/10/07 08:25:00;;;;;;;18.35;7.20;;;;;;;12.32;75.71;97520.03;2081862;28;20903;-64
2023/10/07 08:26:09;;;;;;;19.98;6.75;;;;;;;12.57;75.77;97517.31;2081784;28;20203;-64
2023/10/07 08:27:43;;;;;;;14.60;6.03;;;;;;;12.72;75.49;97517.63;2082981;28;20639;-65
2023/10/07 08:28:47;;;;;;;14.55;6.28;;;;;;;12.76;74.52;97515.75;2080785;28;20208;-65
2023/10/07 08:29:53;;;;;;;14.32;7.20;;;;;;;12.80;73.31;97518.19;2085289;28;20277;-65
2023/10/07 08:30:55;;;;;;;15.68;8.10;;;;;;;12.76;73.73;97511.38;2086965;28;20287;-65
2023/10/07 08:32:51;;;;;;;27.75;11.35;;;;;;;12.82;73.82;97513.72;2102430;27;20562;-64
2023/10/07 08:34:15;;;;;;;24.98;12.05;;;;;;;12.94;73.39;97506.28;2099778;28;20243;-65
2023/10/07 08:35:18;;;;;;;28.58;12.45;;;;;;;12.93;72.37;97502.81;2094689;28;20223;-65
2023/10/07 08:36:29;;;;;;;19.92;9.05;;;;;;;12.92;70.98;97508.13;2099465;28;20233;-64
2023/10/07 08:38:37;;;;;;;21.70;7.10;;;;;;;12.86;71.59;97503.97;2100035;27;20558;-64
2023/10/07 08:39:44;;;;;;;19.35;7.15;;;;;;;12.80;71.40;97494.59;2083278;28;20312;-64
2023/10/07 08:41:47;;;;;;;12.88;6.10;;;;;;;13.02;72.36;97504.22;2099231;27;20555;-64
2023/10/07 08:44:03;;;;;;;16.08;5.90;;;;;;;13.15;72.02;97508.03;2093083;27;20890;-64
2023/10/07 08:45:14;;;;;;;18.33;5.45;;;;;;;13.28;71.75;97511.00;2088355;28;20223;-64
2023/10/07 08:46:16;;;;;;;19.40;6.07;;;;;;;13.53;72.03;97516.13;2087858;28;20209;-65
2023/10/07 08:47:21;;;;;;;12.48;5.80;;;;;;;13.61;72.08;97507.03;2086360;28;20209;-64
2023/10/07 08:48:26;;;;;;;18.65;5.95;;;;;;;13.72;70.10;97504.81;2089783;28;20680;-64
2023/10/07 08:49:29;;;;;;;13.85;6.25;;;;;;;13.80;69.70;97507.97;2088939;28;20767;-65
2023/10/07 08:50:30;;;;;;;14.73;5.72;;;;;;;13.93;70.00;97513.50;2089669;28;20205;-64
2023/10/07 08:51:40;;;;;;;12.50;5.20;;;;;;;13.85;69.23;97499.84;2088596;28;20197;-64
2023/10/07 08:52:43;;;;;;;17.42;5.75;;;;;;;13.96;68.92;97507.28;2084650;28;20256;-64
2023/10/07 08:53:47;;;;;;;16.23;6.18;;;;;;;14.29;68.73;97510.13;2087934;28;20725;-64
2023/10/07 08:54:50;;;;;;;19.73;5.95;;;;;;;14.98;66.07;97506.06;2086034;28;20225;-65
2023/10/07 08:55:54;;;;;;;10.52;4.50;;;;;;;15.14;65.34;97508.78;2087428;28;20638;-64
2023/10/07 08:57:08;;;;;;;19.90;5.20;;;;;;;15.23;64.48;97511.88;2087633;28;20197;-64
2023/10/07 08:58:11;;;;;;;11.38;4.30;;;;;;;15.33;64.87;97515.75;2086335;28;20247;-64
2023/10/07 08:59:13;;;;;;;11.98;5.55;;;;;;;15.24;66.28;97517.06;2089065;28;20197;-65
2023/10/07 09:00:21;;;;;;;14.88;6.80;;;;;;;15.02;66.60;97510.25;2089611;28;20415;-64
2023/10/07 09:01:24;;;;;;;12.15;5.18;;;;;;;15.28;65.53;97507.25;2087803;28;20202;-64
2023/10/07 09:02:27;;;;;;;13.77;6.25;;;;;;;15.27;65.63;97506.38;2087304;28;20635;-65
2023/10/07 09:03:31;;;;;;;12.38;4.75;;;;;;;15.19;66.78;97519.06;2088162;28;20839;-65
2023/10/07 09:04:35;;;;;;;11.38;5.30;;;;;;;15.05;67.08;97508.41;2088562;28;20680;-65
2023/10/07 09:05:37;;;;;;;13.70;5.43;;;;;;;15.11;65.73;97511.56;2088800;28;20196;-64
2023/10/07 09:06:46;;;;;;;12.25;4.55;;;;;;;15.14;66.02;97508.78;2087380;28;20292;-64
2023/10/07 09:07:50;;;;;;;15.27;5.32;;;;;;;14.97;67.45;97506.13;2086302;28;20279;-65
2023/10/07 09:08:53;;;;;;;10.23;4.80;;;;;;;14.91;67.34;97501.19;2089239;28;20675;-64
2023/10/07 09:10:01;;;;;;;13.15;5.05;;;;;;;14.78;67.78;97503.53;2088350;28;20271;-64
2023/10/07 09:11:08;;;;;;;11.93;5.00;;;;;;;14.74;68.40;97504.59;2089664;28;20200;-64
2023/10/07 09:12:31;;;;;;;18.25;4.80;;;;;;;14.65;68.65;97506.75;2087643;28;20205;-64
2023/10/07 09:13:33;;;;;;;24.58;5.88;;;;;;;14.54;69.47;97509.00;2086860;28;20262;-64
2023/10/07 09:14:35;;;;;;;14.15;5.78;;;;;;;14.44;69.98;97505.13;2086112;28;20225;-64
2023/10/07 09:15:42;;;;;;;15.90;5.65;;;;;;;14.50;69.77;97510.06;2085877;28;20202;-64
2023/10/07 09:16:44;;;;;;;11.77;5.07;;;;;;;14.62;69.70;97509.47;2085302;28;20556;-64
2023/10/07 09:17:45;;;;;;;12.43;4.80;;;;;;;14.70;70.07;97514.41;2091672;28;20246;-64
2023/10/07 09:18:55;;;;;;;12.80;5.95;;;;;;;14.58;70.68;97514.97;2086383;28;20648;-64
2023/10/07 09:20:00;;;;;;;13.18;6.28;;;;;;;14.60;70.17;97519.25;2080408;28;20911;-64
2023/10/07 09:21:09;;;;;;;13.73;5.75;;;;;;;14.52;71.20;97519.59;2084366;28;20669;-65
2023/10/07 09:22:10;;;;;;;18.15;6.45;;;;;;;14.51;69.96;97527.53;2084304;28;20565;-65
2023/10/07 09:23:19;;;;;;;15.65;6.15;;;;;;;14.55;69.90;97529.13;2082914;28;20276;-64
2023/10/07 09:24:24;;;;;;;12.40;4.55;;;;;;;14.60;68.78;97534.13;2084328;28;20297;-64
2023/10/07 09:25:31;;;;;;;15.38;6.00;;;;;;;14.61;69.99;97536.69;2087016;28;20193;-64
2023/10/07 09:26:37;;;;;;;12.60;5.45;;;;;;;14.57;69.44;97534.28;2087260;28;20293;-64
2023/10/07 09:27:39;;;;;;;14.40;6.15;;;;;;;14.54;69.73;97532.66;2089956;28;20328;-64
2023/10/07 09:28:44;;;;;;;19.65;6.15;;;;;;;14.51;68.79;97525.78;2087414;28;20891;-64
2023/10/07 09:43:29;;;;;;;13.05;5.35;;;;;;;14.77;68.47;97515.00;2083094;28;20554;-64
2023/10/07 09:45:47;;;;;;;20.40;6.07;;;;;;;14.88;67.57;97522.34;2090672;28;20564;-64
2023/10/07 09:48:05;;;;;;;9.52;4.20;;;;;;;14.84;66.11;97521.63;2107286;27;20563;-64
2023/10/07 09:51:29;;;;;;;14.27;4.60;;;;;;;15.07;66.00;97520.53;2099264;28;20535;-64
2023/10/07 09:52:32;;;;;;;12.27;4.78;;;;;;;15.10;64.18;97525.63;2097835;28;20193;-64
2023/10/07 09:53:59;;;;;;;9.30;5.25;;;;;;;15.36;63.65;97523.50;2095134;28;20206;-64
2023/10/07 09:55:21;;;;;;;17.35;4.32;;;;;;;15.47;64.06;97531.69;2077182;28;20225;-65
2023/10/07 09:56:59;;;;;;;11.38;4.40;;;;;;;15.62;64.50;97534.50;2077869;28;20200;-61
2023/10/07 09:58:17;;;;;;;13.65;4.60;;;;;;;15.77;63.07;97530.22;2077389;28;20232;-60
2023/10/07 09:59:22;;;;;;;8.45;4.40;;;;;;;15.97;63.77;97543.25;2075379;28;20217;-61
2023/10/07 10:01:05;;;;;;;14.43;5.55;;;;;;;16.17;63.38;97536.06;2076023;28;20202;-61
2023/10/07 10:03:03;;;;;;;9.45;4.18;;;;;;;16.36;62.18;97527.19;2069633;28;20657;-61
2023/10/07 10:04:27;;;;;;;12.30;4.22;;;;;;;16.56;61.42;97534.00;2063510;28;20235;-61
2023/10/07 10:05:56;;;;;;;11.90;5.05;;;;;;;16.97;60.43;97533.50;2081486;28;20244;-61
2023/10/07 10:07:29;;;;;;;19.95;6.07;;;;;;;17.33;59.30;97537.63;2081996;28;20695;-61
2023/10/07 10:08:59;;;;;;;18.52;4.55;;;;;;;17.61;58.85;97534.22;2082357;28;20944;-61
2023/10/07 10:10:12;;;;;;;13.20;4.85;;;;;;;18.18;57.42;97529.13;2081973;28;20225;-61
2023/10/07 10:11:30;;;;;;;17.90;6.10;;;;;;;18.24;57.48;97524.28;2082615;28;21101;-61
2023/10/07 10:13:53;;;;;;;28.50;7.50;;;;;;;18.30;57.23;97522.22;2082157;28;20290;-61
2023/10/07 10:15:50;;;;;;;13.95;5.72;;;;;;;18.13;56.33;97528.56;2082045;28;20244;-61
2023/10/07 10:16:28;;;;;;;12.07;4.97;;;;;;;17.69;57.05;97525.00;2082606;28;20210;-61
2023/10/07 10:17:40;;;;;;;12.00;5.00;;;;;;;17.56;57.09;97524.84;2082191;28;20228;-61
2023/10/07 10:18:45;;;;;;;12.35;4.35;;;;;;;17.39;56.81;97518.78;2082605;28;20207;-61
2023/10/07 10:19:51;;;;;;;11.98;4.40;;;;;;;17.24;56.92;97519.66;2082307;28;20289;-61
2023/10/07 10:21:09;;;;;;;13.38;4.75;;;;;;;17.23;57.71;97524.09;2083252;28;20737;-61
2023/10/07 10:22:12;;;;;;;10.55;4.35;;;;;;;17.21;56.84;97533.06;2081637;28;20545;-61
2023/10/07 10:23:19;;;;;;;10.13;4.10;;;;;;;17.41;56.83;97534.53;2080637;28;20672;-61
2023/10/07 10:24:28;;;;;;;16.92;5.57;;;;;;;17.21;57.09;97533.06;2084783;28;20232;-61
2023/10/07 10:26:38;;;;;;;19.65;4.82;;;;;;;17.28;57.79;97535.25;2081610;28;20239;-62
2023/10/07 10:27:44;;;;;;;9.90;4.65;;;;;;;17.25;58.38;97522.22;2082643;28;20198;-61
2023/10/07 10:29:03;;;;;;;12.00;4.68;;;;;;;17.13;58.71;97526.41;2082405;28;20268;-60
2023/10/07 10:30:06;;;;;;;9.77;4.03;;;;;;;17.27;59.16;97516.88;2072824;28;20233;-61
2023/10/07 10:31:20;;;;;;;9.20;3.97;;;;;;;17.37;58.15;97525.94;2074032;28;20205;-61
2023/10/07 10:32:29;;;;;;;12.93;4.60;;;;;;;17.26;58.54;97516.00;2073746;28;20198;-61
2023/10/07 10:33:32;;;;;;;13.70;3.97;;;;;;;17.29;58.98;97514.97;2074429;28;20730;-61
2023/10/07 10:34:35;;;;;;;22.50;4.40;;;;;;;17.39;59.18;97510.84;2071468;28;20237;-61
2023/10/07 10:35:40;;;;;;;16.52;5.65;;;;;;;17.46;58.45;97514.00;2073961;28;20201;-61
2023/10/07 10:36:48;;;;;;;14.82;5.45;;;;;;;17.55;58.88;97512.63;2075301;28;20594;-60
2023/10/07 10:37:55;;;;;;;14.82;5.10;;;;;;;17.58;58.88;97512.41;2075403;28;20206;-61
2023/10/07 10:38:56;;;;;;;9.07;4.15;;;;;;;17.68;58.85;97520.66;2072088;28;20205;-61
2023/10/07 10:40:05;;;;;;;8.38;4.18;;;;;;;17.73;58.81;97524.69;2074472;28;20221;-61
2023/10/07 10:41:10;;;;;;;10.40;4.30;;;;;;;17.86;58.44;97526.63;2075675;28;20197;-61
2023/10/07 10:42:13;;;;;;;11.20;3.90;;;;;;;17.85;58.49;97525.78;2073182;28;20217;-61
2023/10/07 10:43:28;;;;;;;9.07;3.80;;;;;;;18.02;58.67;97518.66;2073862;28;20209;-61
2023/10/07 10:44:42;;;;;;;11.40;5.05;;;;;;;18.05;57.71;97521.09;2073361;28;20221;-61
2023/10/07 10:45:43;;;;;;;13.00;4.20;;;;;;;18.15;58.39;97513.47;2073753;28;20198;-61
2023/10/07 10:46:49;;;;;;;10.77;4.25;;;;;;;18.15;57.70;97519.59;2073449;28;20289;-61
2023/10/07 10:47:52;;;;;;;8.38;3.85;;;;;;;18.13;57.78;97520.63;2074289;28;20577;-61
2023/10/07 10:48:54;;;;;;;8.50;3.92;;;;;;;18.19;57.03;97523.72;2070951;28;20237;-60
2023/10/07 10:49:56;;;;;;;12.63;5.05;;;;;;;18.09;57.46;97512.91;2071122;28;20241;-61
2023/10/07 10:50:58;;;;;;;10.32;4.60;;;;;;;17.97;57.66;97518.06;2073386;28;20248;-61
2023/10/07 10:52:00;;;;;;;8.20;3.85;;;;;;;18.00;57.81;97502.03;2073008;28;20189;-61
2023/10/07 10:53:01;;;;;;;7.68;3.70;;;;;;;17.88;57.79;97519.47;2072005;28;20206;-61
2023/10/07 10:54:05;;;;;;;7.63;3.38;;;;;;;17.91;57.72;97511.34;2071679;28;20195;-61
2023/10/07 10:55:06;;;;;;;11.38;4.72;;;;;;;17.90;57.76;97509.63;2072718;28;20202;-61
2023/10/07 10:56:08;;;;;;;8.63;4.07;;;;;;;17.78;57.57;97514.72;2074305;28;20205;-61
2023/10/07 10:57:19;;;;;;;13.00;4.53;;;;;;;17.72;58.04;97511.59;2074030;28;20226;-61
2023/10/07 10:58:21;;;;;;;8.32;4.10;;;;;;;17.69;57.93;97509.16;2072144;28;20641;-61
2023/10/07 10:59:42;;;;;;;10.10;3.75;;;;;;;17.91;58.02;97500.75;2073355;28;20226;-60
2023/10/07 11:00:49;;;;;;;12.23;3.88;;;;;;;17.85;57.71;97502.00;2074976;28;20798;-61
2023/10/07 11:01:50;;;;;;;11.48;3.60;;;;;;;17.81;57.60;97491.69;2069078;28;20814;-61
2023/10/07 11:02:53;;;;;;;13.00;3.38;;;;;;;17.82;58.29;97491.59;2067849;28;20204;-61
2023/10/07 11:03:55;;;;;;;10.02;3.35;;;;;;;17.95;57.70;97489.97;2067997;28;20194;-61
2023/10/07 11:04:57;;;;;;;10.00;3.80;;;;;;;18.04;57.78;97487.69;2066566;28;20309;-61
2023/10/07 11:06:00;;;;;;;8.77;3.25;;;;;;;18.07;56.77;97493.63;2068141;28;20646;-61
2023/10/07 11:07:04;;;;;;;8.20;3.65;;;;;;;18.00;56.93;97496.75;2067803;28;20214;-61
2023/10/07 11:08:07;;;;;;;8.15;3.20;;;;;;;18.10;57.29;97495.22;2068815;28;20293;-61
2023/10/07 11:09:09;;;;;;;9.20;3.50;;;;;;;18.18;57.14;97503.56;2069955;28;20541;-62
2023/10/07 11:10:11;;;;;;;15.65;3.42;;;;;;;18.30;57.26;97491.34;2068613;28;20261;-62
2023/10/07 11:11:12;;;;;;;6.10;3.17;;;;;;;18.28;57.29;97494.09;2067769;28;20199;-61
2023/10/07 11:12:16;;;;;;;9.75;3.22;;;;;;;18.36;56.63;97479.53;2068518;28;20191;-62
2023/10/07 11:13:20;;;;;;;8.60;3.28;;;;;;;18.25;56.44;97489.00;2069199;28;20281;-62
2023/10/07 11:14:23;;;;;;;8.10;2.92;;;;;;;18.19;56.26;97478.78;2065852;28;20813;-61
2023/10/07 11:15:25;;;;;;;11.25;3.13;;;;;;;18.23;56.42;97490.91;2069065;28;20198;-61
2023/10/07 11:16:26;;;;;;;8.38;3.53;;;;;;;18.20;56.73;97495.53;2069125;28;20199;-61
2023/10/07 11:17:28;;;;;;;9.27;3.65;;;;;;;18.12;56.60;97490.72;2070179;28;20606;-61
2023/10/07 11:18:31;;;;;;;8.25;3.30;;;;;;;18.09;56.36;97482.97;2070169;28;20834;-61
2023/10/07 11:19:40;;;;;;;8.68;3.40;;;;;;;18.14;56.03;97491.44;2066958;28;20226;-61
2023/10/07 11:20:43;;;;;;;8.93;3.25;;;;;;;18.44;55.81;97493.13;2068771;28;20202;-61
2023/10/07 11:21:49;;;;;;;7.88;3.65;;;;;;;18.48;56.16;97488.50;2067616;28;20194;-61
2023/10/07 11:22:53;;;;;;;7.32;2.92;;;;;;;18.32;56.01;97491.25;2067376;28;20222;-61
2023/10/07 11:23:54;;;;;;;11.70;3.53;;;;;;;18.29;56.14;97487.00;2067058;28;20257;-61
2023/10/07 11:24:56;;;;;;;10.00;3.90;;;;;;;18.33;56.11;97483.22;2069521;28;20564;-62
2023/10/07 11:25:57;;;;;;;12.45;3.92;;;;;;;18.33;56.48;97477.94;2067552;28;20210;-63
2023/10/07 11:27:02;;;;;;;7.60;3.60;;;;;;;18.25;56.96;97485.50;2066856;28;20194;-64
2023/10/07 11:28:14;;;;;;;9.23;3.10;;;;;;;18.16;57.32;97480.81;2067783;28;20245;-63
2023/10/07 11:29:15;;;;;;;8.38;3.65;;;;;;;18.12;57.03;97482.78;2067410;28;20191;-63
2023/10/07 11:30:17;;;;;;;11.98;4.05;;;;;;;18.28;57.50;97478.25;2067419;28;20201;-63
2023/10/07 11:31:30;;;;;;;11.25;3.30;;;;;;;18.10;56.99;97474.94;2067648;28;20191;-64
2023/10/07 11:32:38;;;;;;;11.95;4.35;;;;;;;18.01;57.56;97486.06;2068056;28;20198;-63
2023/10/07 11:33:51;;;;;;;8.02;3.50;;;;;;;17.96;57.50;97477.59;2069613;28;20309;-63
2023/10/07 11:34:52;;;;;;;9.85;4.20;;;;;;;17.87;57.10;97478.13;2067911;28;20231;-64
2023/10/07 11:35:58;;;;;;;10.07;3.25;;;;;;;17.86;57.18;97473.78;2067641;28;20206;-63
2023/10/07 11:37:10;;;;;;;11.95;3.70;;;;;;;17.78;57.63;97480.38;2069333;28;20678;-64
2023/10/07 11:38:13;;;;;;;7.72;3.35;;;;;;;17.77;57.72;97465.47;2068829;28;20278;-64
2023/10/07 11:39:14;;;;;;;6.82;2.92;;;;;;;17.75;58.00;97467.38;2068445;28;20205;-63
2023/10/07 11:40:19;;;;;;;9.13;3.60;;;;;;;17.76;57.98;97471.72;2067516;28;20618;-64
2023/10/07 11:41:21;;;;;;;7.65;2.97;;;;;;;17.88;57.77;97472.75;2068703;28;20257;-63
2023/10/07 11:42:23;;;;;;;9.13;3.28;;;;;;;17.86;57.49;97474.63;2070756;28;20400;-63
2023/10/07 11:43:24;;;;;;;7.88;3.25;;;;;;;17.89;57.53;97471.81;2070343;28;20277;-63
2023/10/07 11:44:26;;;;;;;15.48;4.10;;;;;;;17.89;57.92;97468.28;2069484;28;20222;-63
2023/10/07 11:45:28;;;;;;;9.27;3.55;;;;;;;17.99;57.92;97473.91;2069558;28;20191;-63
2023/10/07 11:46:30;;;;;;;6.93;3.40;;;;;;;18.08;57.79;97470.69;2069195;28;20195;-63
2023/10/07 11:47:31;;;;;;;9.55;4.57;;;;;;;18.15;57.62;97471.19;2068784;28;20675;-64
2023/10/07 11:48:36;;;;;;;9.93;3.20;;;;;;;18.25;57.59;97475.78;2068040;28;21136;-63
2023/10/07 11:49:37;;;;;;;8.65;3.78;;;;;;;18.18;57.50;97474.47;2067790;28;20760;-63
2023/10/07 11:50:38;;;;;;;11.77;3.33;;;;;;;18.15;57.11;97474.66;2068194;28;20657;-62
2023/10/07 11:51:40;;;;;;;13.18;4.53;;;;;;;18.21;56.80;97478.72;2068882;28;20549;-62
2023/10/07 11:52:43;;;;;;;6.75;3.42;;;;;;;18.10;57.14;97471.44;2067761;28;20206;-63
2023/10/07 11:53:45;;;;;;;10.55;4.15;;;;;;;18.06;57.33;97469.94;2069925;28;20895;-62
2023/10/07 11:54:49;;;;;;;7.88;3.95;;;;;;;18.20;57.46;97474.38;2068118;28;20229;-62
2023/10/07 11:55:50;;;;;;;11.88;3.38;;;;;;;18.32;57.41;97472.75;2067701;28;20205;-62
2023/10/07 11:56:52;;;;;;;9.13;3.35;;;;;;;18.41;56.76;97473.03;2068413;28;20267;-62
2023/10/07 11:57:54;;;;;;;9.60;3.75;;;;;;;18.40;56.83;97473.97;2067790;28;20197;-63
2023/10/07 11:58:55;;;;;;;8.40;3.85;;;;;;;18.37;56.74;97474.16;2067078;28;20202;-62
2023/10/07 11:59:58;;;;;;;11.23;3.30;;;;;;;18.53;56.80;97468.75;2067290;28;20625;-63
2023/10/07 12:01:03;;;;;;;10.82;4.88;;;;;;;18.37;56.86;97471.53;2068169;28;20692;-62
2023/10/07 12:02:10;;;;;;;13.85;3.80;;;;;;;18.26;56.51;97468.72;2067924;28;20202;-63
2023/10/07 12:03:12;;;;;;;9.18;3.95;;;;;;;18.27;56.80;97473.03;2066785;28;20234;-62
2023/10/07 12:04:14;;;;;;;6.53;3.25;;;;;;;18.32;56.54;97472.75;2070151;28;20641;-62
2023/10/07 12:05:20;;;;;;;15.23;4.05;;;;;;;18.21;57.34;97478.72;2069530;28;20203;-62
2023/10/07 12:06:24;;;;;;;7.68;3.40;;;;;;;18.30;57.33;97471.97;2068960;28;20202;-62
2023/10/07 12:07:29;;;;;;;7.03;3.10;;;;;;;18.30;56.86;97475.50;2067656;28;20201;-62
2023/10/07 12:08:34;;;;;;;13.38;3.47;;;;;;;18.24;57.23;97473.22;2068911;28;20191;-62
2023/10/07 12:09:37;;;;;;;11.18;3.55;;;;;;;18.23;57.75;97471.53;2067498;28;20219;-63
2023/10/07 12:10:38;;;;;;;8.70;3.85;;;;;;;18.35;57.34;97468.13;2067983;28;20205;-63
2023/10/07 12:11:40;;;;;;;11.38;3.75;;;;;;;18.33;57.83;97471.81;2069670;28;20190;-62
2023/10/07 12:12:45;;;;;;;8.60;3.20;;;;;;;18.39;57.04;97471.44;2069283;28;20198;-62
2023/10/07 12:13:46;;;;;;;8.20;3.40;;;;;;;18.32;57.43;97478.03;2069483;28;20202;-62
2023/10/07 12:14:48;;;;;;;6.43;2.88;;;;;;;18.32;57.76;97470.97;2066050;28;20250;-63
2023/10/07 12:15:50;;;;;;;8.60;3.33;;;;;;;18.30;57.57;97470.22;2066156;28;20289;-62
2023/10/07 12:17:07;;;;;;;5.20;2.75;;;;;;;18.26;57.31;97469.53;2068894;28;20202;-62
2023/10/07 12:18:09;;;;;;;7.35;3.25;;;;;;;18.23;57.15;97468.88;2068958;28;20198;-63
2023/10/07 12:19:11;;;;;;;10.23;3.20;;;;;;;18.15;56.81;97465.88;2067881;28;20282;-63
2023/10/07 12:20:13;;;;;;;7.30;3.10;;;;;;;18.24;57.55;97473.22;2067664;28;20205;-62
2023/10/07 12:21:15;;;;;;;10.63;3.30;;;;;;;18.34;56.95;97466.41;2068663;28;20916;-62
2023/10/07 12:22:16;;;;;;;9.82;3.45;;;;;;;18.52;57.38;97468.84;2068201;28;20252;-62
2023/10/07 12:23:18;;;;;;;7.07;3.50;;;;;;;18.65;57.09;97467.13;2068424;28;20195;-62
2023/10/07 12:24:20;;;;;;;18.27;3.30;;;;;;;18.58;56.65;97465.81;2066932;28;20828;-62
2023/10/07 12:25:22;;;;;;;8.73;3.22;;;;;;;18.52;56.89;97476.78;2069817;28;20293;-63
2023/10/07 12:26:23;;;;;;;12.38;3.83;;;;;;;18.64;56.54;97469.84;2070361;28;20186;-62
2023/10/07 12:27:26;;;;;;;8.13;3.30;;;;;;;18.75;56.14;97476.16;2068976;28;20203;-63
2023/10/07 12:28:27;;;;;;;9.77;3.65;;;;;;;18.73;55.77;97478.03;2067919;28;20214;-62
2023/10/07 12:29:29;;;;;;;9.25;3.15;;;;;;;18.72;56.19;97473.69;2068087;28;20318;-63
2023/10/07 12:30:31;;;;;;;8.52;3.47;;;;;;;18.77;55.89;97478.69;2067996;28;20205;-62
2023/10/07 12:31:33;;;;;;;7.68;3.53;;;;;;;18.74;55.89;97466.53;2068791;28;20779;-62
2023/10/07 12:32:34;;;;;;;7.97;3.40;;;;;;;18.62;55.55;97469.09;2069233;28;20234;-63
2023/10/07 12:33:36;;;;;;;8.50;3.78;;;;;;;18.62;55.57;97474.41;2067858;28;20199;-63
2023/10/07 12:34:40;;;;;;;10.88;3.92;;;;;;;18.84;55.86;97471.19;2065276;28;20944;-63
2023/10/07 12:35:43;;;;;;;12.73;3.25;;;;;;;18.69;56.33;97465.97;2067153;28;20570;-62
2023/10/07 12:36:45;;;;;;;8.15;3.33;;;;;;;18.84;55.78;97474.72;2068510;28;20841;-62
2023/10/07 12:37:47;;;;;;;8.55;3.08;;;;;;;18.74;55.55;97470.94;2069386;28;20210;-62
2023/10/07 12:38:48;;;;;;;8.70;3.50;;;;;;;18.72;55.52;97476.34;2068212;28;20589;-62
2023/10/07 12:39:50;;;;;;;9.65;3.60;;;;;;;18.57;55.61;97464.09;2065698;28;20741;-62
2023/10/07 12:40:51;;;;;;;6.97;3.30;;;;;;;18.72;55.25;97467.56;2066163;28;20198;-62
2023/10/07 12:41:53;;;;;;;11.48;3.72;;;;;;;18.86;55.91;97475.44;2067473;28;20969;-62
2023/10/07 12:42:56;;;;;;;10.23;3.60;;;;;;;18.85;55.47;97472.91;2067164;28;20203;-62
2023/10/07 12:43:59;;;;;;;8.75;3.65;;;;;;;18.86;54.77;97471.97;2069680;28;20293;-62
2023/10/07 12:45:01;;;;;;;11.48;3.40;;;;;;;18.87;55.28;97471.03;2069692;28;20685;-63
2023/10/07 12:46:02;;;;;;;9.38;3.75;;;;;;;18.96;55.15;97472.22;2066702;28;20628;-62
2023/10/07 12:47:08;;;;;;;11.27;3.95;;;;;;;19.00;54.79;97473.72;2068030;28;20285;-62
2023/10/07 12:48:11;;;;;;;8.68;3.85;;;;;;;18.87;54.57;97468.38;2068251;28;20208;-62
2023/10/07 12:49:15;;;;;;;8.02;3.30;;;;;;;18.75;55.52;97465.56;2068217;28;20767;-62
2023/10/07 12:50:20;;;;;;;8.32;3.70;;;;;;;18.81;54.65;97460.84;2066503;28;20199;-63
2023/10/07 12:51:23;;;;;;;8.10;3.38;;;;;;;18.87;54.79;97463.09;2066866;28;20386;-63
2023/10/07 12:52:26;;;;;;;9.63;4.45;;;;;;;19.01;54.46;97462.22;2067360;28;20391;-62
2023/10/07 12:53:27;;;;;;;7.68;3.65;;;;;;;18.89;54.46;97463.81;2067688;28;20248;-62
2023/10/07 12:54:29;;;;;;;10.82;3.42;;;;;;;19.01;54.37;97465.69;2067931;28;20229;-62
2023/10/07 12:55:34;;;;;;;11.60;3.38;;;;;;;19.02;54.41;97459.44;2067674;28;20201;-62
2023/10/07 12:56:42;;;;;;;9.55;2.95;;;;;;;19.06;54.11;97462.75;2067949;28;20759;-62
2023/10/07 12:57:45;;;;;;;11.45;3.63;;;;;;;19.06;54.46;97452.16;2066970;28;20203;-62
2023/10/07 12:58:46;;;;;;;8.88;3.13;;;;;;;19.10;54.08;97461.59;2066310;28;20203;-62
2023/10/07 12:59:52;;;;;;;10.63;3.28;;;;;;;19.31;54.40;97463.75;2066269;28;20704;-62
2023/10/07 13:00:55;;;;;;;6.57;3.15;;;;;;;19.68;53.73;97462.09;2067779;28;20195;-62
2023/10/07 13:01:56;;;;;;;6.90;3.20;;;;;;;19.70;52.88;97473.41;2067147;28;20753;-62
2023/10/07 13:02:58;;;;;;;7.20;3.03;;;;;;;19.71;53.13;97475.13;2066713;28;20199;-62
2023/10/07 13:04:01;;;;;;;6.72;3.22;;;;;;;20.29;52.28;97473.84;2068525;28;20203;-63
2023/10/07 13:05:09;;;;;;;7.03;3.25;;;;;;;20.29;52.38;97472.03;2066930;28;20285;-62
2023/10/07 13:06:19;;;;;;;8.45;3.10;;;;;;;20.31;52.00;97479.88;2067883;28;20208;-63
2023/10/07 13:07:20;;;;;;;9.73;3.10;;;;;;;20.58;50.83;97460.28;2067990;28;20653;-63
2023/10/07 13:08:27;;;;;;;10.55;3.78;;;;;;;20.68;50.90;97469.28;2068452;28;20285;-62
2023/10/07 13:09:30;;;;;;;6.95;2.80;;;;;;;20.54;51.13;97478.22;2066965;28;20818;-62
2023/10/07 13:10:32;;;;;;;7.53;3.38;;;;;;;20.23;51.64;97475.13;2067332;28;20205;-63
2023/10/07 13:11:35;;;;;;;20.55;3.30;;;;;;;20.21;51.83;97477.03;2067087;28;20243;-63